RYR22SM LEXJ-EIDW
Flight info
| Callsign | RYR22SM |
|---|---|
| Flight time | 1h 36m |
| Altitude | 34000 |
| Route | VADOX N864 DELOG DCT IBISU DCT DOLUR DCT UPCAB DCT IJALA DCT EVRIN DCT BUNED BUNED3R |
| Aircraft | B738/M-SDE2E3FGHIRWXY/LB1 |
Departure
| Time | 2026-04-21 12:21 |
|---|---|
| Airport | Seve Ballesteros-Santander Airport (LEXJ) |
Arrival
| Time | 2026-04-21 13:57 |
|---|---|
| Airport | Dublin Airport (EIDW) |
| Time | Latitude | Longitude | Altitude | Speed | Heading |
|---|---|---|---|---|---|
| 2026-04-21 11:49 | 43.42357 | -3.82223 | 18 ft | 0 kts | 200° |
| 2026-04-21 12:10 | 43.42361 | -3.82221 | 18 ft | 2 kts | 200° |
| 2026-04-21 12:11 | 43.42370 | -3.82216 | 18 ft | 3 kts | 197° |
| 2026-04-21 12:11 | 43.42389 | -3.82212 | 19 ft | 3 kts | 170° |
| 2026-04-21 12:11 | 43.42405 | -3.82221 | 20 ft | 3 kts | 132° |
| 2026-04-21 12:11 | 43.42416 | -3.82244 | 20 ft | 3 kts | 111° |
| 2026-04-21 12:12 | 43.42422 | -3.82265 | 18 ft | 2 kts | 110° |
| 2026-04-21 12:15 | 43.42421 | -3.82264 | 18 ft | 1 kts | 110° |
| 2026-04-21 12:15 | 43.42417 | -3.82246 | 19 ft | 3 kts | 110° |
| 2026-04-21 12:15 | 43.42404 | -3.82201 | 20 ft | 7 kts | 110° |
| 2026-04-21 12:15 | 43.42392 | -3.82130 | 18 ft | 9 kts | 73° |
| 2026-04-21 12:16 | 43.42446 | -3.82085 | 18 ft | 10 kts | 20° |
| 2026-04-21 12:16 | 43.42518 | -3.82044 | 18 ft | 12 kts | 39° |
| 2026-04-21 12:16 | 43.42518 | -3.81933 | 18 ft | 13 kts | 108° |
| 2026-04-21 12:16 | 43.42485 | -3.81805 | 18 ft | 15 kts | 109° |
| 2026-04-21 12:17 | 43.42447 | -3.81665 | 18 ft | 16 kts | 110° |
| 2026-04-21 12:17 | 43.42406 | -3.81511 | 18 ft | 18 kts | 110° |
| 2026-04-21 12:17 | 43.42386 | -3.81359 | 18 ft | 15 kts | 55° |
| 2026-04-21 12:17 | 43.42480 | -3.81298 | 23 ft | 15 kts | 32° |
| 2026-04-21 12:18 | 43.42484 | -3.81168 | 21 ft | 16 kts | 109° |
| 2026-04-21 12:18 | 43.42443 | -3.81019 | 21 ft | 18 kts | 111° |
| 2026-04-21 12:18 | 43.42401 | -3.80858 | 22 ft | 18 kts | 109° |
| 2026-04-21 12:18 | 43.42350 | -3.80729 | 18 ft | 14 kts | 136° |
| 2026-04-21 12:19 | 43.42331 | -3.80649 | 19 ft | 7 kts | 47° |
| 2026-04-21 12:19 | 43.42357 | -3.80654 | 17 ft | 4 kts | 313° |
| 2026-04-21 12:19 | 43.42358 | -3.80693 | 18 ft | 5 kts | 271° |
| 2026-04-21 12:19 | 43.42361 | -3.80708 | 18 ft | 0 kts | 289° |
| 2026-04-21 12:20 | 43.42384 | -3.80795 | 20 ft | 38 kts | 290° |
| 2026-04-21 12:20 | 43.42567 | -3.81479 | 22 ft | 112 kts | 290° |
| 2026-04-21 12:21 | 43.42915 | -3.82767 | 27 ft | 172 kts | 291° |
| 2026-04-21 12:21 | 43.43378 | -3.84416 | 443 ft | 198 kts | 293° |
| 2026-04-21 12:21 | 43.43906 | -3.86247 | 1197 ft | 206 kts | 290° |
| 2026-04-21 12:21 | 43.44387 | -3.87981 | 2223 ft | 190 kts | 288° |
| 2026-04-21 12:22 | 43.44996 | -3.89736 | 2640 ft | 220 kts | 310° |
| 2026-04-21 12:22 | 43.46378 | -3.90779 | 2965 ft | 242 kts | 349° |
| 2026-04-21 12:22 | 43.48098 | -3.90960 | 3508 ft | 254 kts | 358° |
| 2026-04-21 12:22 | 43.49898 | -3.91028 | 4057 ft | 264 kts | 358° |
| 2026-04-21 12:23 | 43.51790 | -3.91105 | 4479 ft | 283 kts | 358° |
| 2026-04-21 12:23 | 43.53784 | -3.91215 | 5255 ft | 287 kts | 356° |
| 2026-04-21 12:23 | 43.55780 | -3.91353 | 6136 ft | 289 kts | 355° |
| 2026-04-21 12:23 | 43.57806 | -3.91525 | 6865 ft | 293 kts | 355° |
| 2026-04-21 12:24 | 43.59849 | -3.91720 | 7674 ft | 296 kts | 355° |
| 2026-04-21 12:24 | 43.61920 | -3.91922 | 8439 ft | 298 kts | 355° |
| 2026-04-21 12:24 | 43.63998 | -3.92125 | 9284 ft | 301 kts | 355° |
| 2026-04-21 12:24 | 43.66114 | -3.92331 | 10002 ft | 306 kts | 355° |
| 2026-04-21 12:25 | 43.68245 | -3.92538 | 10445 ft | 321 kts | 355° |
| 2026-04-21 12:25 | 43.70582 | -3.92766 | 10667 ft | 344 kts | 355° |
| 2026-04-21 12:25 | 43.73019 | -3.93004 | 10830 ft | 366 kts | 355° |
| 2026-04-21 12:25 | 43.75588 | -3.93252 | 11419 ft | 373 kts | 354° |
| 2026-04-21 12:26 | 43.78202 | -3.93502 | 12023 ft | 379 kts | 354° |
| 2026-04-21 12:26 | 43.80843 | -3.93755 | 12756 ft | 381 kts | 354° |
| 2026-04-21 12:26 | 43.83502 | -3.94010 | 13445 ft | 385 kts | 354° |
| 2026-04-21 12:26 | 43.86195 | -3.94269 | 14049 ft | 390 kts | 354° |
| 2026-04-21 12:27 | 43.88913 | -3.94530 | 14705 ft | 393 kts | 354° |
| 2026-04-21 12:27 | 43.91661 | -3.94794 | 15297 ft | 397 kts | 354° |
| 2026-04-21 12:27 | 43.94439 | -3.95062 | 15912 ft | 400 kts | 354° |
| 2026-04-21 12:27 | 43.97214 | -3.95330 | 16577 ft | 403 kts | 354° |
| 2026-04-21 12:28 | 44.00027 | -3.95602 | 17106 ft | 408 kts | 354° |
| 2026-04-21 12:28 | 44.02869 | -3.95877 | 17734 ft | 411 kts | 354° |
| 2026-04-21 12:28 | 44.05732 | -3.96155 | 18312 ft | 415 kts | 354° |
| 2026-04-21 12:28 | 44.08630 | -3.96436 | 18818 ft | 417 kts | 354° |
| 2026-04-21 12:29 | 44.11500 | -3.96715 | 19310 ft | 421 kts | 354° |
| 2026-04-21 12:29 | 44.14433 | -3.97000 | 19824 ft | 424 kts | 354° |
| 2026-04-21 12:29 | 44.17381 | -3.97287 | 20369 ft | 426 kts | 354° |
| 2026-04-21 12:29 | 44.20349 | -3.97575 | 20867 ft | 429 kts | 354° |
| 2026-04-21 12:30 | 44.23337 | -3.97866 | 21350 ft | 432 kts | 354° |
| 2026-04-21 12:30 | 44.26352 | -3.98161 | 21794 ft | 436 kts | 354° |
| 2026-04-21 12:30 | 44.29395 | -3.98458 | 22276 ft | 439 kts | 354° |
| 2026-04-21 12:30 | 44.32448 | -3.98759 | 22741 ft | 441 kts | 353° |
| 2026-04-21 12:31 | 44.35505 | -3.99247 | 23188 ft | 443 kts | 349° |
| 2026-04-21 12:31 | 44.38564 | -3.99899 | 23623 ft | 446 kts | 348° |
| 2026-04-21 12:31 | 44.41629 | -4.00617 | 24005 ft | 447 kts | 348° |
| 2026-04-21 12:31 | 44.44711 | -4.01358 | 24404 ft | 449 kts | 348° |
| 2026-04-21 12:32 | 44.47792 | -4.02093 | 24790 ft | 451 kts | 348° |
| 2026-04-21 12:32 | 44.50895 | -4.02822 | 25154 ft | 453 kts | 348° |
| 2026-04-21 12:32 | 44.54014 | -4.03544 | 25535 ft | 455 kts | 348° |
| 2026-04-21 12:32 | 44.57154 | -4.04262 | 25902 ft | 457 kts | 348° |
| 2026-04-21 12:33 | 44.60257 | -4.04967 | 26255 ft | 459 kts | 348° |
| 2026-04-21 12:33 | 44.63418 | -4.05683 | 26605 ft | 461 kts | 348° |
| 2026-04-21 12:33 | 44.66593 | -4.06401 | 26941 ft | 463 kts | 348° |
| 2026-04-21 12:33 | 44.69781 | -4.07123 | 27274 ft | 465 kts | 348° |
| 2026-04-21 12:34 | 44.72988 | -4.07851 | 27601 ft | 467 kts | 348° |
| 2026-04-21 12:34 | 44.76201 | -4.08582 | 27922 ft | 469 kts | 348° |
| 2026-04-21 12:34 | 44.79427 | -4.09316 | 28234 ft | 471 kts | 348° |
| 2026-04-21 12:34 | 44.82669 | -4.10055 | 28535 ft | 473 kts | 348° |
| 2026-04-21 12:35 | 44.85923 | -4.10797 | 28815 ft | 475 kts | 348° |
| 2026-04-21 12:35 | 44.89198 | -4.11546 | 29101 ft | 477 kts | 348° |
| 2026-04-21 12:35 | 44.92475 | -4.12295 | 29451 ft | 477 kts | 348° |
| 2026-04-21 12:35 | 44.95743 | -4.13043 | 29910 ft | 474 kts | 348° |
| 2026-04-21 12:36 | 44.98996 | -4.13787 | 30291 ft | 473 kts | 348° |
| 2026-04-21 12:36 | 45.02244 | -4.14532 | 30606 ft | 473 kts | 348° |
| 2026-04-21 12:36 | 45.05492 | -4.15278 | 30902 ft | 473 kts | 347° |
| 2026-04-21 12:36 | 45.08738 | -4.16026 | 31209 ft | 472 kts | 347° |
| 2026-04-21 12:37 | 45.11973 | -4.16771 | 31537 ft | 471 kts | 347° |
| 2026-04-21 12:37 | 45.15209 | -4.17517 | 31858 ft | 471 kts | 347° |
| 2026-04-21 12:37 | 45.18440 | -4.18263 | 32173 ft | 470 kts | 347° |
| 2026-04-21 12:37 | 45.21673 | -4.19010 | 32498 ft | 469 kts | 347° |
| 2026-04-21 12:38 | 45.24856 | -4.19747 | 32804 ft | 468 kts | 347° |
| 2026-04-21 12:38 | 45.28114 | -4.20501 | 33129 ft | 468 kts | 347° |
| 2026-04-21 12:38 | 45.31287 | -4.21237 | 33419 ft | 467 kts | 347° |
| 2026-04-21 12:38 | 45.34491 | -4.21981 | 33719 ft | 466 kts | 346° |
| 2026-04-21 12:39 | 45.37686 | -4.22724 | 33911 ft | 467 kts | 346° |
| 2026-04-21 12:39 | 45.44135 | -4.24228 | 33899 ft | 468 kts | 346° |
| 2026-04-21 12:40 | 45.50527 | -4.25717 | 33897 ft | 463 kts | 346° |
| 2026-04-21 12:40 | 45.56883 | -4.27203 | 33907 ft | 461 kts | 346° |
| 2026-04-21 12:41 | 45.63210 | -4.28687 | 33919 ft | 460 kts | 346° |
| 2026-04-21 12:41 | 45.69491 | -4.30165 | 33921 ft | 460 kts | 346° |
| 2026-04-21 12:42 | 45.75813 | -4.31655 | 33923 ft | 461 kts | 346° |
| 2026-04-21 12:42 | 45.82150 | -4.33151 | 33930 ft | 462 kts | 346° |
| 2026-04-21 12:43 | 45.88507 | -4.34656 | 33935 ft | 464 kts | 346° |
| 2026-04-21 12:43 | 45.94882 | -4.36168 | 33934 ft | 465 kts | 346° |
| 2026-04-21 12:44 | 46.01273 | -4.37687 | 33937 ft | 466 kts | 346° |
| 2026-04-21 12:44 | 46.07667 | -4.39211 | 33941 ft | 466 kts | 346° |
| 2026-04-21 12:45 | 46.14079 | -4.40742 | 33942 ft | 466 kts | 346° |
| 2026-04-21 12:45 | 46.20476 | -4.42273 | 33945 ft | 466 kts | 346° |
| 2026-04-21 12:46 | 46.26874 | -4.43809 | 33948 ft | 466 kts | 346° |
| 2026-04-21 12:46 | 46.33266 | -4.45346 | 33953 ft | 465 kts | 346° |
| 2026-04-21 12:47 | 46.39657 | -4.46887 | 33953 ft | 465 kts | 346° |
| 2026-04-21 12:47 | 46.45989 | -4.48418 | 33962 ft | 464 kts | 346° |
| 2026-04-21 12:48 | 46.52356 | -4.49960 | 33964 ft | 463 kts | 346° |
| 2026-04-21 12:48 | 46.58708 | -4.51503 | 33968 ft | 463 kts | 346° |
| 2026-04-21 12:49 | 46.65067 | -4.53051 | 33973 ft | 462 kts | 346° |
| 2026-04-21 12:49 | 46.71411 | -4.54599 | 33971 ft | 462 kts | 346° |
| 2026-04-21 12:50 | 46.77748 | -4.56149 | 33978 ft | 461 kts | 346° |
| 2026-04-21 12:50 | 46.84086 | -4.57704 | 33990 ft | 461 kts | 346° |
| 2026-04-21 12:51 | 46.90418 | -4.59260 | 33982 ft | 461 kts | 346° |
| 2026-04-21 12:51 | 46.96731 | -4.60816 | 33989 ft | 460 kts | 346° |
| 2026-04-21 12:52 | 47.03009 | -4.62367 | 33998 ft | 460 kts | 346° |
| 2026-04-21 12:52 | 47.09328 | -4.63925 | 34000 ft | 460 kts | 347° |
| 2026-04-21 12:53 | 47.15689 | -4.65128 | 33999 ft | 461 kts | 349° |
| 2026-04-21 12:53 | 47.22075 | -4.66124 | 34004 ft | 461 kts | 350° |
| 2026-04-21 12:54 | 47.28466 | -4.67138 | 34004 ft | 461 kts | 349° |
| 2026-04-21 12:54 | 47.34822 | -4.68188 | 34002 ft | 461 kts | 349° |
| 2026-04-21 12:55 | 47.41194 | -4.69262 | 34006 ft | 461 kts | 349° |
| 2026-04-21 12:55 | 47.47596 | -4.70346 | 34015 ft | 461 kts | 349° |
| 2026-04-21 12:56 | 47.53975 | -4.71428 | 34013 ft | 461 kts | 349° |
| 2026-04-21 12:56 | 47.60338 | -4.72509 | 34022 ft | 461 kts | 349° |
| 2026-04-21 12:57 | 47.66672 | -4.73587 | 34021 ft | 461 kts | 349° |
| 2026-04-21 12:57 | 47.73033 | -4.74672 | 34024 ft | 460 kts | 349° |
| 2026-04-21 12:58 | 47.78355 | -4.75582 | 34029 ft | 460 kts | 349° |
| 2026-04-21 12:58 | 47.84725 | -4.76675 | 34035 ft | 460 kts | 349° |
| 2026-04-21 12:59 | 47.91086 | -4.77768 | 34037 ft | 460 kts | 349° |
| 2026-04-21 12:59 | 47.97391 | -4.78854 | 34042 ft | 460 kts | 349° |
| 2026-04-21 13:00 | 48.03742 | -4.79951 | 34041 ft | 459 kts | 349° |
| 2026-04-21 13:00 | 48.10095 | -4.81051 | 34049 ft | 459 kts | 349° |
| 2026-04-21 13:01 | 48.16445 | -4.82153 | 34051 ft | 458 kts | 349° |
| 2026-04-21 13:01 | 48.22774 | -4.83254 | 34051 ft | 457 kts | 349° |
| 2026-04-21 13:02 | 48.29070 | -4.84352 | 34062 ft | 456 kts | 349° |
| 2026-04-21 13:02 | 48.38520 | -4.86005 | 34068 ft | 455 kts | 349° |
| 2026-04-21 13:03 | 48.44756 | -4.87100 | 34068 ft | 454 kts | 349° |
| 2026-04-21 13:03 | 48.51029 | -4.88204 | 34073 ft | 453 kts | 349° |
| 2026-04-21 13:04 | 48.57285 | -4.89307 | 34084 ft | 452 kts | 349° |
| 2026-04-21 13:04 | 48.63538 | -4.90413 | 34086 ft | 452 kts | 349° |
| 2026-04-21 13:05 | 48.69782 | -4.91520 | 34101 ft | 451 kts | 349° |
| 2026-04-21 13:05 | 48.76008 | -4.92627 | 34111 ft | 450 kts | 348° |
| 2026-04-21 13:06 | 48.82183 | -4.93727 | 34110 ft | 449 kts | 348° |
| 2026-04-21 13:06 | 48.88390 | -4.94835 | 34121 ft | 449 kts | 348° |
| 2026-04-21 13:07 | 48.94586 | -4.95944 | 34128 ft | 448 kts | 348° |
| 2026-04-21 13:07 | 49.00772 | -4.97055 | 34132 ft | 447 kts | 348° |
| 2026-04-21 13:08 | 49.06961 | -4.98169 | 34139 ft | 447 kts | 348° |
| 2026-04-21 13:08 | 49.13130 | -4.99282 | 34141 ft | 446 kts | 348° |
| 2026-04-21 13:09 | 49.19292 | -5.00396 | 34144 ft | 446 kts | 348° |
| 2026-04-21 13:09 | 49.25455 | -5.01514 | 34153 ft | 446 kts | 348° |
| 2026-04-21 13:10 | 49.31607 | -5.02632 | 34155 ft | 446 kts | 348° |
| 2026-04-21 13:10 | 49.37765 | -5.03755 | 34159 ft | 446 kts | 348° |
| 2026-04-21 13:11 | 49.43922 | -5.04879 | 34167 ft | 445 kts | 348° |
| 2026-04-21 13:11 | 49.49880 | -5.07026 | 34176 ft | 436 kts | 333° |
| 2026-04-21 13:12 | 49.55153 | -5.11330 | 34177 ft | 431 kts | 326° |
| 2026-04-21 13:12 | 49.60352 | -5.15938 | 34177 ft | 431 kts | 326° |
| 2026-04-21 13:13 | 49.65566 | -5.20530 | 34182 ft | 432 kts | 326° |
| 2026-04-21 13:13 | 49.70798 | -5.25100 | 34168 ft | 432 kts | 326° |
| 2026-04-21 13:14 | 49.76046 | -5.29677 | 34191 ft | 432 kts | 326° |
| 2026-04-21 13:14 | 49.81287 | -5.34257 | 34190 ft | 433 kts | 326° |
| 2026-04-21 13:15 | 49.86528 | -5.38848 | 34184 ft | 433 kts | 326° |
| 2026-04-21 13:15 | 49.91768 | -5.43452 | 34194 ft | 433 kts | 326° |
| 2026-04-21 13:16 | 49.97006 | -5.48066 | 34172 ft | 433 kts | 326° |
| 2026-04-21 13:16 | 50.02243 | -5.52690 | 34159 ft | 433 kts | 326° |
| 2026-04-21 13:17 | 50.07442 | -5.57292 | 34166 ft | 433 kts | 326° |
| 2026-04-21 13:17 | 50.12684 | -5.61944 | 34159 ft | 433 kts | 326° |
| 2026-04-21 13:18 | 50.17917 | -5.66601 | 34170 ft | 433 kts | 326° |
| 2026-04-21 13:18 | 50.23153 | -5.71271 | 34169 ft | 433 kts | 326° |
| 2026-04-21 13:19 | 50.28370 | -5.75937 | 34176 ft | 433 kts | 326° |
| 2026-04-21 13:19 | 50.33603 | -5.80629 | 34191 ft | 432 kts | 326° |
| 2026-04-21 13:20 | 50.38821 | -5.85319 | 34204 ft | 432 kts | 326° |
| 2026-04-21 13:20 | 50.44021 | -5.90006 | 34214 ft | 432 kts | 326° |
| 2026-04-21 13:21 | 50.49222 | -5.94705 | 34220 ft | 432 kts | 326° |
| 2026-04-21 13:21 | 50.54438 | -5.99430 | 34221 ft | 432 kts | 326° |
| 2026-04-21 13:22 | 50.59648 | -6.04161 | 34219 ft | 432 kts | 326° |
| 2026-04-21 13:22 | 50.64863 | -6.08910 | 34226 ft | 432 kts | 326° |
| 2026-04-21 13:23 | 50.70065 | -6.13660 | 34231 ft | 433 kts | 326° |
| 2026-04-21 13:23 | 50.75280 | -6.18433 | 34236 ft | 433 kts | 326° |
| 2026-04-21 13:24 | 50.80491 | -6.23216 | 34235 ft | 433 kts | 326° |
| 2026-04-21 13:24 | 50.85691 | -6.28000 | 34239 ft | 433 kts | 326° |
| 2026-04-21 13:25 | 50.91121 | -6.32100 | 34242 ft | 439 kts | 339° |
| 2026-04-21 13:25 | 50.97146 | -6.34078 | 34251 ft | 443 kts | 346° |
| 2026-04-21 13:26 | 51.03227 | -6.35758 | 34254 ft | 443 kts | 346° |
| 2026-04-21 13:26 | 51.09298 | -6.37512 | 34256 ft | 443 kts | 345° |
| 2026-04-21 13:27 | 51.15375 | -6.39323 | 34261 ft | 443 kts | 345° |
| 2026-04-21 13:27 | 51.21399 | -6.41129 | 34265 ft | 443 kts | 345° |
| 2026-04-21 13:28 | 51.27461 | -6.42947 | 34268 ft | 443 kts | 345° |
| 2026-04-21 13:28 | 51.33535 | -6.44631 | 34269 ft | 443 kts | 347° |
| 2026-04-21 13:29 | 51.39623 | -6.46177 | 34277 ft | 443 kts | 347° |
| 2026-04-21 13:29 | 51.45711 | -6.47739 | 34280 ft | 443 kts | 346° |
| 2026-04-21 13:30 | 51.51811 | -6.49333 | 33783 ft | 448 kts | 346° |
| 2026-04-21 13:30 | 51.54880 | -6.50140 | 33194 ft | 446 kts | 346° |
| 2026-04-21 13:30 | 51.57919 | -6.50937 | 32794 ft | 439 kts | 346° |
| 2026-04-21 13:31 | 51.60926 | -6.51727 | 32296 ft | 436 kts | 346° |
| 2026-04-21 13:31 | 51.63904 | -6.52511 | 31855 ft | 431 kts | 346° |
| 2026-04-21 13:31 | 51.66852 | -6.53289 | 31405 ft | 428 kts | 346° |
| 2026-04-21 13:31 | 51.69777 | -6.54063 | 30966 ft | 424 kts | 345° |
| 2026-04-21 13:32 | 51.72679 | -6.54832 | 30533 ft | 420 kts | 345° |
| 2026-04-21 13:32 | 51.75554 | -6.55594 | 30052 ft | 417 kts | 345° |
| 2026-04-21 13:32 | 51.78368 | -6.56313 | 29572 ft | 414 kts | 348° |
| 2026-04-21 13:32 | 51.81228 | -6.56708 | 29212 ft | 410 kts | 351° |
| 2026-04-21 13:33 | 51.84066 | -6.56936 | 28773 ft | 406 kts | 352° |
| 2026-04-21 13:33 | 51.86878 | -6.57109 | 28330 ft | 403 kts | 352° |
| 2026-04-21 13:33 | 51.89665 | -6.57276 | 27896 ft | 399 kts | 352° |
| 2026-04-21 13:33 | 51.92427 | -6.57454 | 27457 ft | 396 kts | 352° |
| 2026-04-21 13:34 | 51.95169 | -6.57645 | 27024 ft | 393 kts | 352° |
| 2026-04-21 13:34 | 51.97888 | -6.57846 | 26596 ft | 390 kts | 352° |
| 2026-04-21 13:34 | 52.00585 | -6.58053 | 26172 ft | 387 kts | 352° |
| 2026-04-21 13:34 | 52.03261 | -6.58263 | 25757 ft | 384 kts | 352° |
| 2026-04-21 13:35 | 52.05917 | -6.58473 | 25346 ft | 382 kts | 352° |
| 2026-04-21 13:35 | 52.08576 | -6.58684 | 24926 ft | 380 kts | 352° |
| 2026-04-21 13:35 | 52.11181 | -6.58891 | 24521 ft | 378 kts | 352° |
| 2026-04-21 13:35 | 52.13800 | -6.59100 | 24112 ft | 376 kts | 352° |
| 2026-04-21 13:36 | 52.16410 | -6.59309 | 23644 ft | 375 kts | 352° |
| 2026-04-21 13:36 | 52.19007 | -6.59516 | 23187 ft | 373 kts | 352° |
| 2026-04-21 13:36 | 52.21590 | -6.59722 | 22753 ft | 370 kts | 352° |
| 2026-04-21 13:36 | 52.24148 | -6.59926 | 22344 ft | 367 kts | 352° |
| 2026-04-21 13:37 | 52.26692 | -6.60129 | 21928 ft | 364 kts | 353° |
| 2026-04-21 13:37 | 52.29216 | -6.60330 | 21524 ft | 361 kts | 353° |
| 2026-04-21 13:37 | 52.31717 | -6.60531 | 21124 ft | 359 kts | 353° |
| 2026-04-21 13:37 | 52.34205 | -6.60730 | 20725 ft | 357 kts | 353° |
| 2026-04-21 13:38 | 52.36670 | -6.60928 | 20333 ft | 354 kts | 353° |
| 2026-04-21 13:38 | 52.39126 | -6.61126 | 19946 ft | 352 kts | 353° |
| 2026-04-21 13:38 | 52.41579 | -6.61308 | 19501 ft | 352 kts | 354° |
| 2026-04-21 13:38 | 52.43991 | -6.61463 | 19111 ft | 350 kts | 354° |
| 2026-04-21 13:39 | 52.46420 | -6.61612 | 18723 ft | 349 kts | 355° |
| 2026-04-21 13:39 | 52.48838 | -6.61760 | 18288 ft | 347 kts | 355° |
| 2026-04-21 13:39 | 52.51248 | -6.61911 | 17851 ft | 345 kts | 355° |
| 2026-04-21 13:39 | 52.53638 | -6.62061 | 17444 ft | 342 kts | 356° |
| 2026-04-21 13:40 | 52.56011 | -6.62212 | 17060 ft | 340 kts | 356° |
| 2026-04-21 13:40 | 52.58371 | -6.62363 | 16667 ft | 338 kts | 356° |
| 2026-04-21 13:40 | 52.60715 | -6.62514 | 16286 ft | 336 kts | 356° |
| 2026-04-21 13:40 | 52.63048 | -6.62665 | 15905 ft | 335 kts | 357° |
| 2026-04-21 13:41 | 52.65357 | -6.62815 | 15531 ft | 333 kts | 358° |
| 2026-04-21 13:41 | 52.67682 | -6.62966 | 15160 ft | 335 kts | 358° |
| 2026-04-21 13:41 | 52.70036 | -6.63119 | 14786 ft | 341 kts | 358° |
| 2026-04-21 13:41 | 52.72437 | -6.63275 | 14391 ft | 347 kts | 358° |
| 2026-04-21 13:42 | 52.74853 | -6.63432 | 13963 ft | 349 kts | 359° |
| 2026-04-21 13:42 | 52.77287 | -6.63590 | 13526 ft | 350 kts | 359° |
| 2026-04-21 13:42 | 52.78897 | -6.63694 | 13248 ft | 351 kts | 359° |
| 2026-04-21 13:42 | 52.82152 | -6.63906 | 12696 ft | 348 kts | 359° |
| 2026-04-21 13:43 | 52.84526 | -6.64061 | 12299 ft | 345 kts | 360° |
| 2026-04-21 13:43 | 52.86914 | -6.64218 | 11905 ft | 342 kts | 359° |
| 2026-04-21 13:43 | 52.89287 | -6.64374 | 11517 ft | 339 kts | 360° |
| 2026-04-21 13:43 | 52.91636 | -6.64529 | 11131 ft | 336 kts | 0° |
| 2026-04-21 13:44 | 52.93960 | -6.64682 | 10869 ft | 330 kts | 0° |
| 2026-04-21 13:44 | 52.96212 | -6.64832 | 10726 ft | 320 kts | 0° |
| 2026-04-21 13:44 | 52.98410 | -6.64977 | 10583 ft | 312 kts | 0° |
| 2026-04-21 13:44 | 53.00549 | -6.65121 | 10462 ft | 304 kts | 1° |
| 2026-04-21 13:45 | 53.02644 | -6.65259 | 10278 ft | 302 kts | 0° |
| 2026-04-21 13:45 | 53.04767 | -6.65392 | 9952 ft | 307 kts | 1° |
| 2026-04-21 13:45 | 53.06908 | -6.65528 | 9642 ft | 309 kts | 1° |
| 2026-04-21 13:45 | 53.09050 | -6.65670 | 9322 ft | 307 kts | 1° |
| 2026-04-21 13:46 | 53.11164 | -6.65813 | 8992 ft | 299 kts | 1° |
| 2026-04-21 13:46 | 53.13207 | -6.65951 | 8686 ft | 289 kts | 1° |
| 2026-04-21 13:46 | 53.14524 | -6.66039 | 8495 ft | 283 kts | 2° |
| 2026-04-21 13:46 | 53.17072 | -6.66211 | 8142 ft | 269 kts | 2° |
| 2026-04-21 13:47 | 53.18312 | -6.66296 | 7977 ft | 260 kts | 2° |
| 2026-04-21 13:47 | 53.20663 | -6.66453 | 7616 ft | 251 kts | 2° |
| 2026-04-21 13:47 | 53.21814 | -6.66528 | 7443 ft | 249 kts | 3° |
| 2026-04-21 13:47 | 53.23537 | -6.66641 | 7201 ft | 245 kts | 3° |
| 2026-04-21 13:48 | 53.25236 | -6.66751 | 6958 ft | 242 kts | 3° |
| 2026-04-21 13:48 | 53.26909 | -6.66862 | 6739 ft | 238 kts | 4° |
| 2026-04-21 13:48 | 53.29105 | -6.67007 | 6455 ft | 239 kts | 4° |
| 2026-04-21 13:48 | 53.30227 | -6.67079 | 6320 ft | 240 kts | 4° |
| 2026-04-21 13:49 | 53.31899 | -6.67189 | 6125 ft | 240 kts | 4° |
| 2026-04-21 13:49 | 53.33569 | -6.67299 | 5917 ft | 240 kts | 4° |
| 2026-04-21 13:49 | 53.35248 | -6.67410 | 5546 ft | 247 kts | 4° |
| 2026-04-21 13:49 | 53.36964 | -6.67525 | 5239 ft | 239 kts | 4° |
| 2026-04-21 13:50 | 53.38574 | -6.67638 | 5074 ft | 230 kts | 4° |
| 2026-04-21 13:50 | 53.40157 | -6.67746 | 4970 ft | 226 kts | 4° |
| 2026-04-21 13:50 | 53.41690 | -6.67852 | 4852 ft | 215 kts | 4° |
| 2026-04-21 13:50 | 53.43167 | -6.67942 | 4794 ft | 210 kts | 8° |
| 2026-04-21 13:51 | 53.44460 | -6.67201 | 4731 ft | 186 kts | 52° |
| 2026-04-21 13:51 | 53.44985 | -6.65318 | 4648 ft | 182 kts | 83° |
| 2026-04-21 13:51 | 53.45172 | -6.63164 | 4430 ft | 190 kts | 83° |
| 2026-04-21 13:51 | 53.45288 | -6.60958 | 4161 ft | 188 kts | 88° |
| 2026-04-21 13:52 | 53.45336 | -6.58834 | 3917 ft | 176 kts | 89° |
| 2026-04-21 13:52 | 53.45316 | -6.56851 | 3677 ft | 164 kts | 93° |
| 2026-04-21 13:52 | 53.45239 | -6.54990 | 3464 ft | 156 kts | 94° |
| 2026-04-21 13:52 | 53.45145 | -6.53201 | 3251 ft | 153 kts | 95° |
| 2026-04-21 13:53 | 53.45043 | -6.51395 | 3070 ft | 159 kts | 94° |
| 2026-04-21 13:53 | 53.44936 | -6.49530 | 2852 ft | 160 kts | 95° |
| 2026-04-21 13:53 | 53.44830 | -6.47684 | 2618 ft | 159 kts | 95° |
| 2026-04-21 13:53 | 53.44725 | -6.45861 | 2379 ft | 153 kts | 95° |
| 2026-04-21 13:54 | 53.44629 | -6.44176 | 2210 ft | 136 kts | 95° |
| 2026-04-21 13:54 | 53.44540 | -6.42628 | 2012 ft | 130 kts | 94° |
| 2026-04-21 13:54 | 53.44457 | -6.41182 | 1856 ft | 124 kts | 94° |
| 2026-04-21 13:54 | 53.44374 | -6.39724 | 1664 ft | 125 kts | 94° |
| 2026-04-21 13:55 | 53.44293 | -6.38277 | 1487 ft | 124 kts | 94° |
| 2026-04-21 13:55 | 53.44210 | -6.36852 | 1319 ft | 122 kts | 93° |
| 2026-04-21 13:55 | 53.44132 | -6.35444 | 1139 ft | 120 kts | 93° |
| 2026-04-21 13:55 | 53.44051 | -6.34060 | 970 ft | 119 kts | 94° |
| 2026-04-21 13:56 | 53.43962 | -6.32663 | 792 ft | 122 kts | 93° |
| 2026-04-21 13:56 | 53.43892 | -6.31269 | 628 ft | 119 kts | 94° |
| 2026-04-21 13:56 | 53.43817 | -6.29882 | 434 ft | 120 kts | 92° |
| 2026-04-21 13:56 | 53.43740 | -6.28512 | 292 ft | 121 kts | 93° |
| 2026-04-21 13:57 | 53.43667 | -6.27155 | 209 ft | 107 kts | 93° |
| 2026-04-21 13:57 | 53.43614 | -6.26174 | 213 ft | 62 kts | 95° |
| 2026-04-21 13:57 | 53.43588 | -6.25687 | 212 ft | 30 kts | 96° |
| 2026-04-21 13:57 | 53.43558 | -6.25365 | 212 ft | 25 kts | 105° |
| 2026-04-21 13:58 | 53.43492 | -6.25123 | 214 ft | 11 kts | 121° |
| 2026-04-21 13:58 | 53.43451 | -6.25012 | 210 ft | 12 kts | 133° |
| 2026-04-21 13:58 | 53.43383 | -6.25039 | 210 ft | 12 kts | 249° |
| 2026-04-21 13:58 | 53.43388 | -6.25193 | 218 ft | 14 kts | 276° |
| 2026-04-21 13:59 | 53.43396 | -6.25349 | 210 ft | 4 kts | 275° |
| 2026-04-21 13:59 | 53.43399 | -6.25405 | 210 ft | 6 kts | 275° |
| 2026-04-21 13:59 | 53.43403 | -6.25488 | 214 ft | 8 kts | 275° |
| 2026-04-21 13:59 | 53.43407 | -6.25596 | 210 ft | 11 kts | 268° |
| 2026-04-21 14:00 | 53.43349 | -6.25644 | 210 ft | 12 kts | 163° |
| 2026-04-21 14:00 | 53.43270 | -6.25588 | 210 ft | 13 kts | 156° |
| 2026-04-21 14:00 | 53.43192 | -6.25506 | 212 ft | 14 kts | 116° |
| 2026-04-21 14:00 | 53.43134 | -6.25380 | 210 ft | 14 kts | 147° |
| 2026-04-21 14:01 | 53.43113 | -6.25365 | 212 ft | 0 kts | 159° |
| 2026-04-21 14:01 | 53.43111 | -6.25364 | 215 ft | 1 kts | 159° |
| 2026-04-21 14:02 | 53.43094 | -6.25353 | 218 ft | 4 kts | 159° |
| 2026-04-21 14:02 | 53.43059 | -6.25329 | 214 ft | 7 kts | 157° |
| 2026-04-21 14:02 | 53.43010 | -6.25293 | 215 ft | 7 kts | 156° |
| 2026-04-21 14:03 | 53.42958 | -6.25131 | 210 ft | 9 kts | 94° |
| 2026-04-21 14:03 | 53.42954 | -6.25023 | 218 ft | 9 kts | 94° |
| 2026-04-21 14:03 | 53.42950 | -6.24922 | 214 ft | 8 kts | 81° |
| 2026-04-21 14:03 | 53.42985 | -6.24881 | 217 ft | 5 kts | 7° |
| 2026-04-21 14:04 | 53.42999 | -6.24879 | 210 ft | 1 kts | 5° |
| 2026-04-21 14:04 | 53.43004 | -6.24878 | 210 ft | 0 kts | 5° |